createdAt,value
2023-08-13T03:01:53.206Z,56.72
2023-08-13T03:04:26.254Z,56.70
2023-08-13T03:06:56.840Z,56.81
2023-08-13T03:09:26.829Z,56.82
2023-08-13T03:12:00.586Z,56.85
2023-08-13T03:14:32.325Z,56.91
2023-08-13T03:17:00.760Z,56.83
2023-08-13T03:19:28.133Z,57.02
2023-08-13T03:21:56.818Z,56.99
2023-08-13T03:24:25.818Z,57.10
2023-08-13T03:26:58.189Z,57.30
2023-08-13T03:29:25.997Z,57.83
2023-08-13T03:31:57.350Z,57.99
2023-08-13T03:34:27.719Z,58.11
2023-08-13T03:36:56.505Z,57.88
2023-08-13T03:39:25.388Z,57.75
2023-08-13T03:41:56.046Z,57.74
2023-08-13T03:44:26.828Z,57.71
2023-08-13T03:47:00.242Z,57.57
2023-08-13T03:49:30.361Z,57.59
2023-08-13T03:51:58.821Z,57.62
2023-08-13T03:54:30.615Z,57.56
2023-08-13T03:56:57.886Z,57.55
2023-08-13T03:59:27.312Z,57.58
2023-08-13T04:01:55.691Z,57.58
2023-08-13T04:04:24.414Z,57.74
2023-08-13T04:06:56.685Z,57.68
2023-08-13T04:09:25.010Z,57.69
2023-08-13T04:11:53.464Z,58.04
2023-08-13T04:14:21.642Z,58.26
2023-08-13T04:16:51.728Z,58.27
2023-08-13T04:19:21.175Z,58.21
2023-08-13T04:21:52.927Z,58.21
2023-08-13T04:24:23.408Z,58.18
2023-08-13T04:26:55.736Z,58.26
2023-08-13T04:29:24.018Z,58.21
2023-08-13T04:31:55.219Z,58.20
2023-08-13T04:34:23.809Z,58.29
2023-08-13T04:36:55.041Z,58.27
2023-08-13T04:39:25.541Z,58.29
2023-08-13T04:41:54.588Z,58.42
2023-08-13T04:44:23.089Z,58.38
2023-08-13T04:46:53.257Z,58.44
2023-08-13T04:49:22.112Z,58.90
2023-08-13T04:51:52.227Z,59.07
2023-08-13T04:54:21.218Z,58.99
2023-08-13T04:56:49.184Z,58.96
2023-08-13T04:59:17.830Z,58.84
2023-08-13T05:01:45.976Z,58.81
2023-08-13T05:04:14.364Z,58.78
2023-08-13T05:06:42.565Z,58.69
2023-08-13T05:09:11.083Z,58.75
2023-08-13T05:11:39.900Z,58.74
2023-08-13T05:14:08.379Z,58.56
2023-08-13T05:16:37.183Z,58.67
2023-08-13T05:19:04.625Z,58.69
2023-08-13T05:21:37.119Z,58.65
2023-08-13T05:24:37.305Z,58.65
2023-08-13T05:27:07.633Z,58.74
2023-08-13T05:29:38.173Z,58.74
2023-08-13T05:32:07.026Z,58.73
2023-08-13T05:34:40.473Z,58.81
2023-08-13T05:37:09.627Z,58.77
2023-08-13T05:39:37.878Z,58.77
2023-08-13T05:42:06.559Z,58.63
2023-08-13T05:44:37.854Z,58.48
2023-08-13T05:47:06.519Z,58.47
2023-08-13T05:49:34.497Z,58.45
2023-08-13T05:52:02.623Z,58.39
2023-08-13T05:54:31.075Z,57.93
2023-08-13T05:56:59.162Z,57.54
2023-08-13T05:59:29.438Z,56.62
2023-08-13T06:01:57.089Z,55.30
2023-08-13T06:04:24.960Z,54.40
2023-08-13T06:06:52.635Z,54.07
2023-08-13T06:09:20.463Z,54.51
2023-08-13T06:11:48.617Z,54.56
2023-08-13T06:14:16.100Z,55.00
2023-08-13T06:16:46.381Z,54.98
2023-08-13T06:19:15.873Z,54.64
2023-08-13T06:21:43.793Z,54.64
2023-08-13T06:24:11.544Z,54.43
2023-08-13T06:26:39.084Z,54.50
2023-08-13T06:29:06.071Z,54.37
2023-08-13T06:31:42.032Z,54.47
2023-08-13T06:34:48.255Z,54.28
2023-08-13T06:37:16.808Z,54.40
2023-08-13T06:39:44.928Z,54.29
2023-08-13T06:42:13.322Z,54.01
2023-08-13T06:44:44.682Z,53.82
2023-08-13T06:47:13.974Z,53.96
2023-08-13T06:49:42.461Z,53.83
2023-08-13T06:52:14.082Z,53.78
2023-08-13T06:54:44.832Z,53.57
2023-08-13T06:57:32.974Z,53.56
2023-08-13T07:00:00.863Z,53.39
2023-08-13T07:02:29.099Z,53.32
2023-08-13T07:04:57.136Z,53.10
2023-08-13T07:07:28.999Z,52.90
2023-08-13T07:10:06.263Z,53.16
2023-08-13T07:12:39.216Z,53.06
2023-08-13T07:15:09.777Z,52.70
2023-08-13T07:17:39.880Z,52.66
2023-08-13T07:20:11.067Z,52.61
2023-08-13T07:22:39.022Z,52.55
2023-08-13T07:25:09.961Z,52.58
2023-08-13T07:27:38.026Z,52.48
2023-08-13T07:30:09.486Z,52.17
2023-08-13T07:32:37.877Z,52.12
2023-08-13T07:35:08.037Z,52.65
2023-08-13T07:37:40.294Z,53.10
2023-08-13T07:40:29.969Z,53.09
2023-08-13T07:43:03.129Z,52.85
2023-08-13T07:45:30.409Z,52.85
2023-08-13T07:47:59.176Z,52.64
2023-08-13T07:50:26.703Z,52.57
2023-08-13T07:52:54.376Z,52.52
2023-08-13T07:55:22.376Z,52.28
2023-08-13T07:58:18.940Z,52.23
2023-08-13T08:00:46.999Z,52.38
2023-08-13T08:03:16.730Z,52.07
2023-08-13T08:05:49.148Z,52.03
2023-08-13T08:34:42.318Z,51.97
2023-08-13T08:37:15.388Z,51.87
2023-08-13T08:39:47.094Z,51.86
2023-08-13T08:42:15.921Z,51.82
2023-08-13T08:44:49.521Z,51.85
2023-08-13T08:47:25.365Z,51.98
2023-08-13T08:50:07.200Z,51.71
2023-08-13T08:52:42.194Z,51.73
2023-08-13T08:55:45.258Z,52.03
2023-08-13T08:58:14.252Z,52.19
2023-08-13T09:01:10.306Z,52.15
2023-08-13T09:03:49.092Z,51.99
2023-08-13T09:06:22.650Z,52.03
2023-08-13T09:08:53.208Z,51.97
2023-08-13T09:11:21.130Z,51.91
2023-08-13T09:13:53.218Z,51.98
2023-08-13T09:16:21.833Z,51.95
2023-08-13T09:19:04.058Z,51.91
2023-08-13T09:21:39.894Z,52.14
2023-08-13T09:24:39.904Z,52.24
2023-08-13T09:27:10.689Z,52.13
2023-08-13T09:29:40.392Z,52.08
2023-08-13T09:32:09.514Z,52.07
2023-08-13T09:34:37.742Z,51.92
2023-08-13T09:37:05.603Z,52.09
2023-08-13T09:39:53.832Z,51.80
2023-08-13T09:42:24.666Z,51.87
2023-08-13T09:44:57.312Z,51.99
2023-08-13T09:47:27.609Z,52.07
2023-08-13T09:50:02.937Z,52.28
2023-08-13T09:52:32.680Z,52.25
2023-08-13T09:55:18.213Z,52.14
2023-08-13T10:01:11.867Z,52.13
2023-08-13T10:03:41.865Z,52.28
2023-08-13T10:06:11.822Z,52.24
2023-08-13T10:08:42.282Z,52.17
2023-08-13T10:11:13.361Z,52.20
2023-08-13T10:13:42.027Z,52.26
2023-08-13T10:16:14.540Z,52.25
2023-08-13T10:18:48.639Z,52.36
2023-08-13T10:22:06.319Z,52.41
2023-08-13T10:24:39.705Z,52.58
2023-08-13T10:27:13.929Z,52.51
2023-08-13T10:29:45.126Z,52.53
2023-08-13T10:32:21.351Z,52.49
2023-08-13T10:34:55.429Z,52.41
2023-08-13T10:37:33.279Z,52.46
2023-08-13T10:40:09.494Z,52.52
2023-08-13T10:42:38.888Z,52.27
2023-08-13T10:45:09.713Z,52.50
2023-08-13T10:47:57.928Z,52.33
2023-08-13T10:50:43.908Z,52.18
2023-08-13T10:53:27.915Z,52.26
2023-08-13T10:56:10.691Z,52.37
2023-08-13T10:58:41.706Z,52.28
2023-08-13T11:01:24.420Z,53.44
2023-08-13T11:04:04.801Z,55.60
2023-08-13T11:06:42.148Z,54.77
2023-08-13T11:09:12.210Z,54.15
2023-08-13T11:11:45.325Z,54.10
2023-08-13T11:14:16.165Z,53.71
2023-08-13T11:16:48.948Z,53.52
2023-08-13T11:19:20.396Z,53.25
2023-08-13T11:21:55.554Z,53.47
2023-08-13T11:24:28.419Z,53.49
2023-08-13T11:26:57.670Z,53.17
2023-08-13T11:29:27.433Z,52.98
2023-08-13T11:32:22.472Z,53.15
2023-08-13T11:34:55.273Z,53.06
2023-08-13T11:37:44.776Z,52.68
2023-08-13T11:40:20.216Z,52.36
2023-08-13T11:42:58.335Z,53.20
2023-08-13T11:45:53.711Z,52.67
2023-08-13T11:48:39.057Z,52.33
2023-08-13T11:54:36.735Z,51.93
2023-08-13T11:57:09.172Z,51.91
2023-08-13T12:00:05.345Z,51.87
2023-08-13T12:02:43.346Z,51.79
2023-08-13T12:05:17.456Z,51.90
2023-08-13T12:07:49.405Z,52.25
2023-08-13T12:10:18.871Z,52.84
2023-08-13T12:12:51.310Z,52.99
2023-08-13T12:15:25.385Z,53.05
2023-08-13T12:17:56.698Z,52.53
2023-08-13T12:24:06.555Z,51.74
2023-08-13T12:26:45.131Z,51.84
2023-08-13T12:29:21.771Z,53.54
2023-08-13T12:32:07.725Z,53.49
2023-08-13T12:34:39.527Z,54.90
2023-08-13T12:55:01.033Z,63.72
2023-08-13T12:57:28.732Z,62.82
2023-08-13T12:59:58.784Z,62.00
2023-08-13T13:02:29.853Z,60.83
2023-08-13T13:05:01.844Z,59.23
2023-08-13T13:07:32.730Z,58.13
2023-08-13T13:10:02.305Z,56.88
2023-08-13T13:12:34.073Z,55.68
2023-08-13T13:15:05.017Z,55.38
2023-08-13T13:17:35.576Z,54.90
2023-08-13T13:20:12.475Z,54.96
2023-08-13T13:22:43.584Z,54.30
2023-08-13T13:25:13.806Z,53.94
2023-08-13T13:27:46.608Z,53.75
2023-08-13T13:30:15.649Z,53.21
2023-08-13T13:32:47.684Z,53.10
2023-08-13T13:35:16.586Z,53.33
2023-08-13T13:37:45.996Z,53.34
2023-08-13T13:40:15.507Z,53.33
2023-08-13T13:42:49.156Z,52.90
2023-08-13T13:45:23.807Z,53.10
2023-08-13T13:47:52.768Z,52.46
2023-08-13T13:50:22.463Z,52.38
2023-08-13T13:53:10.218Z,52.24
2023-08-13T13:55:47.318Z,51.91
2023-08-13T13:58:16.072Z,52.13
2023-08-13T14:00:46.312Z,53.30
2023-08-13T14:03:15.104Z,56.89
2023-08-13T14:05:44.551Z,58.97
2023-08-13T14:08:14.032Z,66.30
2023-08-13T14:10:45.325Z,69.65
2023-08-13T14:13:15.614Z,70.66
2023-08-13T14:15:59.494Z,71.66
2023-08-13T14:18:31.101Z,73.45
2023-08-13T14:21:16.035Z,75.98
2023-08-13T14:23:46.847Z,77.20
2023-08-13T14:26:16.723Z,79.46
2023-08-13T14:28:48.443Z,80.93
2023-08-13T14:31:18.607Z,81.55
2023-08-13T14:33:48.977Z,82.39
2023-08-13T14:36:18.092Z,83.36
2023-08-13T14:38:47.432Z,83.96
2023-08-13T14:41:16.825Z,84.45
2023-08-13T14:43:45.796Z,84.94
2023-08-13T14:46:20.385Z,85.61
2023-08-13T14:48:49.302Z,86.13
2023-08-13T14:51:18.189Z,86.49
2023-08-13T14:53:46.717Z,86.27
2023-08-13T14:56:19.244Z,86.19
2023-08-13T14:58:47.128Z,86.17
2023-08-13T15:01:16.034Z,86.34
2023-08-13T15:03:45.156Z,86.54
2023-08-13T15:06:17.385Z,86.72
2023-08-13T15:08:47.856Z,86.70
2023-08-13T15:11:15.800Z,85.93
2023-08-13T15:13:44.174Z,85.68
2023-08-13T15:16:13.211Z,85.41
2023-08-13T15:18:42.543Z,85.83
2023-08-13T15:21:13.127Z,88.61
2023-08-13T15:23:43.928Z,90.54
2023-08-13T15:26:16.652Z,92.06
2023-08-13T15:28:46.087Z,93.02
2023-08-13T15:31:16.070Z,93.81
2023-08-13T15:33:44.733Z,94.96
2023-08-13T15:36:15.296Z,97.92
2023-08-13T15:38:48.796Z,99.49
2023-08-13T15:41:18.016Z,100.00
2023-08-13T15:43:46.991Z,100.00
2023-08-13T15:46:15.195Z,100.00
2023-08-13T15:48:43.497Z,100.00
2023-08-13T15:51:15.718Z,100.00
2023-08-13T15:53:45.751Z,100.00
2023-08-13T15:56:14.735Z,100.00
2023-08-13T15:58:43.225Z,100.00
2023-08-13T16:01:13.430Z,100.00
2023-08-13T16:03:41.964Z,100.00
2023-08-13T16:07:13.029Z,100.00
2023-08-13T16:09:50.857Z,100.00
2023-08-13T16:12:22.449Z,100.00
2023-08-13T16:14:51.587Z,100.00
2023-08-13T16:17:19.372Z,100.00
2023-08-13T16:19:50.022Z,100.00
2023-08-13T16:22:19.756Z,100.00
2023-08-13T16:24:48.801Z,100.00
2023-08-13T16:27:18.016Z,100.00
2023-08-13T16:29:47.010Z,100.00
2023-08-13T16:32:27.956Z,100.00
2023-08-13T16:35:01.109Z,100.00
2023-08-13T16:37:34.721Z,100.00
2023-08-13T16:40:06.158Z,100.00
2023-08-13T16:42:46.840Z,100.00
2023-08-13T16:45:20.325Z,100.00
2023-08-13T16:47:48.118Z,100.00
2023-08-13T16:50:16.136Z,100.00
2023-08-13T16:52:44.260Z,100.00
2023-08-13T16:55:12.550Z,100.00
2023-08-13T16:57:43.877Z,100.00
2023-08-13T17:00:13.378Z,100.00
2023-08-13T17:02:44.689Z,100.00
2023-08-13T17:05:14.581Z,100.00
2023-08-13T17:07:42.882Z,100.00
2023-08-13T17:10:14.885Z,100.00
2023-08-13T17:12:44.277Z,100.00
2023-08-13T17:15:23.819Z,100.00
2023-08-13T17:17:56.618Z,100.00
2023-08-13T17:20:26.594Z,100.00
2023-08-13T17:22:55.381Z,100.00
2023-08-13T17:25:24.972Z,100.00
2023-08-13T17:27:54.443Z,100.00
2023-08-13T17:30:26.024Z,100.00
2023-08-13T17:32:54.480Z,100.00
2023-08-13T17:35:22.874Z,100.00
2023-08-13T17:37:51.367Z,100.00
2023-08-13T17:40:20.339Z,100.00
2023-08-13T17:42:49.802Z,100.00
2023-08-13T17:45:19.048Z,100.00
2023-08-13T17:47:48.384Z,100.00
2023-08-13T17:50:17.519Z,100.00
2023-08-13T17:52:45.755Z,99.50
2023-08-13T17:55:13.423Z,98.84
2023-08-13T17:57:42.090Z,98.06
2023-08-13T18:00:11.185Z,97.28
2023-08-13T18:02:46.171Z,96.49
2023-08-13T18:05:15.261Z,95.94
2023-08-13T18:07:44.242Z,95.29
2023-08-13T18:10:13.275Z,94.80
2023-08-13T18:12:42.790Z,94.23
2023-08-13T18:15:11.568Z,93.64
2023-08-13T18:17:40.209Z,93.18
2023-08-13T18:20:12.267Z,92.59
2023-08-13T18:22:43.360Z,92.14
2023-08-13T18:25:12.633Z,91.59
2023-08-13T18:27:41.513Z,91.51
2023-08-13T18:30:10.178Z,91.13
2023-08-13T18:32:38.598Z,90.77
2023-08-13T18:35:07.632Z,90.27
2023-08-13T18:37:35.298Z,89.95
2023-08-13T18:40:04.139Z,89.47
2023-08-13T18:42:32.321Z,88.87
2023-08-13T18:45:00.585Z,88.31
2023-08-13T18:47:29.266Z,87.89
2023-08-13T18:49:58.358Z,87.45
2023-08-13T18:52:30.430Z,87.03
2023-08-13T18:54:58.885Z,86.64
2023-08-13T18:57:27.167Z,86.31
2023-08-13T18:59:56.764Z,86.10
2023-08-13T19:02:26.711Z,85.67
2023-08-13T19:04:55.191Z,85.42
2023-08-13T19:07:23.948Z,85.03
2023-08-13T19:09:54.178Z,84.68
2023-08-13T19:12:27.481Z,84.36
2023-08-13T19:14:58.071Z,84.06
2023-08-13T19:17:27.207Z,83.75
2023-08-13T19:19:55.723Z,83.28
2023-08-13T19:22:24.388Z,83.02
2023-08-13T19:24:52.762Z,82.63
2023-08-13T19:27:22.388Z,82.44
2023-08-13T19:29:52.089Z,82.09
2023-08-13T19:32:21.794Z,81.95
2023-08-13T19:34:52.933Z,81.73
2023-08-13T19:37:22.651Z,81.36
2023-08-13T19:39:53.363Z,81.17
2023-08-13T19:42:24.397Z,81.16
2023-08-13T19:44:55.072Z,81.06
2023-08-13T19:47:26.899Z,81.06
2023-08-13T19:49:56.574Z,80.84
2023-08-13T19:52:32.004Z,80.68
2023-08-13T19:55:00.720Z,80.51
2023-08-13T19:57:33.885Z,80.38
2023-08-13T20:00:03.951Z,80.19
2023-08-13T20:02:43.625Z,79.99
2023-08-13T20:05:11.713Z,79.90
2023-08-13T20:07:39.998Z,79.77
2023-08-13T20:10:10.625Z,79.44
2023-08-13T20:12:40.726Z,79.41
2023-08-13T20:15:14.555Z,79.25
2023-08-13T20:17:43.789Z,79.24
2023-08-13T20:20:17.820Z,79.23
2023-08-13T20:22:53.757Z,79.20
2023-08-13T20:25:29.920Z,79.20
2023-08-13T20:28:08.019Z,79.24
2023-08-13T20:30:39.911Z,79.27
2023-08-13T20:33:22.136Z,79.30
2023-08-13T20:35:55.824Z,79.28
2023-08-13T20:38:25.519Z,79.15
2023-08-13T20:41:02.188Z,79.23
2023-08-13T20:43:33.433Z,79.29
2023-08-13T20:46:04.199Z,79.34
2023-08-13T20:48:32.040Z,79.27
2023-08-13T20:51:04.254Z,79.17
2023-08-13T20:53:35.206Z,79.10
2023-08-13T20:56:08.682Z,79.27
2023-08-13T20:58:40.338Z,79.40
2023-08-13T21:01:14.270Z,79.37
2023-08-13T21:03:45.427Z,79.31
2023-08-13T21:06:22.399Z,79.26
2023-08-13T21:09:12.695Z,79.39
2023-08-13T21:11:50.780Z,79.40
2023-08-13T21:14:23.902Z,79.41
2023-08-13T21:17:03.423Z,79.51
2023-08-13T21:19:34.981Z,79.55
2023-08-13T21:22:10.288Z,79.58
2023-08-13T21:25:02.620Z,79.56
2023-08-13T21:27:36.882Z,79.55
2023-08-13T21:30:26.070Z,79.43
2023-08-13T21:33:03.767Z,79.28
2023-08-13T21:35:43.337Z,79.26
2023-08-13T21:38:16.415Z,79.06
2023-08-13T21:40:54.166Z,78.95
2023-08-13T21:43:24.935Z,78.84
2023-08-13T21:45:55.898Z,78.84
2023-08-13T21:48:26.394Z,78.73
2023-08-13T21:50:59.826Z,78.64
2023-08-13T21:53:30.394Z,78.60
2023-08-13T21:56:04.255Z,78.59
2023-08-13T21:58:51.029Z,78.53
2023-08-13T22:01:32.870Z,78.64
2023-08-13T22:04:08.984Z,78.56
2023-08-13T22:06:39.950Z,78.54
2023-08-13T22:09:12.276Z,78.54
2023-08-13T22:11:41.927Z,78.63
2023-08-13T22:14:10.136Z,78.57
2023-08-13T22:16:38.333Z,78.64
2023-08-13T22:19:06.627Z,78.49
2023-08-13T22:21:35.854Z,78.53
2023-08-13T22:24:05.638Z,78.45
2023-08-13T22:26:34.497Z,78.25
2023-08-13T22:29:03.027Z,78.12
2023-08-13T22:31:30.956Z,78.05
2023-08-13T22:34:00.788Z,78.06
2023-08-13T22:36:29.277Z,77.94
2023-08-13T22:38:57.276Z,77.92
2023-08-13T22:41:26.727Z,77.95
2023-08-13T22:43:56.682Z,77.87
2023-08-13T22:46:25.465Z,77.79
2023-08-13T22:48:53.640Z,77.91
2023-08-13T22:51:21.822Z,77.72
2023-08-13T22:53:52.557Z,77.68
2023-08-13T22:56:20.835Z,77.53
2023-08-13T22:58:49.458Z,77.32
2023-08-13T23:01:17.697Z,77.36
2023-08-13T23:03:46.060Z,77.40
2023-08-13T23:06:19.049Z,77.35
2023-08-13T23:08:47.480Z,77.38
2023-08-13T23:11:16.661Z,77.43
2023-08-13T23:13:45.085Z,77.41
2023-08-13T23:16:13.256Z,77.35
2023-08-13T23:18:41.433Z,77.21
2023-08-13T23:21:09.369Z,77.12
2023-08-13T23:23:37.873Z,77.08
2023-08-13T23:26:06.038Z,77.13
2023-08-13T23:28:34.264Z,77.10
2023-08-13T23:31:02.162Z,77.27
2023-08-13T23:33:32.483Z,77.21
2023-08-13T23:36:00.740Z,77.08
2023-08-13T23:38:28.101Z,76.98
2023-08-13T23:40:56.645Z,76.79
2023-08-13T23:43:24.936Z,76.78
2023-08-13T23:45:52.216Z,76.82
2023-08-13T23:48:20.360Z,76.86
2023-08-13T23:50:55.719Z,76.98
2023-08-13T23:53:25.120Z,76.98
2023-08-13T23:55:53.851Z,77.01
2023-08-13T23:58:22.554Z,76.86
